createdAt,value
2023-05-07T00:01:15.308Z,101065.19
2023-05-07T00:03:44.118Z,101074.00
2023-05-07T00:06:13.755Z,101066.19
2023-05-07T00:08:41.875Z,101067.59
2023-05-07T00:11:10.000Z,101064.91
2023-05-07T00:13:38.065Z,101057.66
2023-05-07T00:16:08.126Z,101068.03
2023-05-07T00:18:36.267Z,101060.91
2023-05-07T00:21:04.246Z,101066.44
2023-05-07T00:23:32.315Z,101063.59
2023-05-07T00:26:00.397Z,101073.53
2023-05-07T00:28:28.433Z,101072.69
2023-05-07T00:30:56.630Z,101064.06
2023-05-07T00:33:27.777Z,101068.59
2023-05-07T00:35:56.387Z,101083.03
2023-05-07T00:38:24.370Z,101082.97
2023-05-07T00:40:52.887Z,101080.00
2023-05-07T00:43:21.205Z,101092.81
2023-05-07T00:45:51.705Z,101086.34
2023-05-07T00:48:20.332Z,101081.53
2023-05-07T00:50:50.329Z,101086.66
2023-05-07T00:53:18.479Z,101093.16
2023-05-07T00:55:46.668Z,101091.78
2023-05-07T00:58:14.722Z,101094.91
2023-05-07T01:00:42.943Z,101095.63
2023-05-07T01:03:10.917Z,101094.63
2023-05-07T01:05:39.934Z,101098.03
2023-05-07T01:08:09.999Z,101099.16
2023-05-07T01:10:37.952Z,101103.53
2023-05-07T01:13:08.436Z,101091.78
2023-05-07T01:15:36.507Z,101099.72
2023-05-07T01:18:04.895Z,101099.44
2023-05-07T01:20:32.926Z,101101.41
2023-05-07T01:23:03.285Z,101103.66
2023-05-07T01:25:31.793Z,101103.38
2023-05-07T01:28:01.022Z,101111.03
2023-05-07T01:30:30.471Z,101105.31
2023-05-07T01:33:04.218Z,101106.03
2023-05-07T01:35:38.244Z,101120.91
2023-05-07T01:38:08.264Z,101125.31
2023-05-07T01:40:36.607Z,101130.78
2023-05-07T01:43:05.157Z,101126.25
2023-05-07T01:45:34.098Z,101136.03
2023-05-07T01:48:02.330Z,101138.59
2023-05-07T01:50:30.909Z,101140.84
2023-05-07T01:52:59.018Z,101137.84
2023-05-07T01:55:28.655Z,101141.53
2023-05-07T01:57:56.593Z,101145.94
2023-05-07T02:00:25.249Z,101139.22
2023-05-07T02:02:54.011Z,101148.88
2023-05-07T02:05:22.507Z,101147.72
2023-05-07T02:07:50.562Z,101152.44
2023-05-07T02:10:18.688Z,101144.94
2023-05-07T02:12:48.385Z,101155.84
2023-05-07T02:15:16.533Z,101149.78
2023-05-07T02:18:02.850Z,101142.38
2023-05-07T02:20:31.083Z,101144.63
2023-05-07T02:22:58.993Z,101145.75
2023-05-07T02:25:26.938Z,101145.34
2023-05-07T02:27:56.301Z,101138.94
2023-05-07T02:30:24.794Z,101141.47
2023-05-07T02:32:52.744Z,101148.59
2023-05-07T02:35:20.928Z,101149.97
2023-05-07T02:37:48.908Z,101141.03
2023-05-07T02:40:16.777Z,101148.28
2023-05-07T02:42:44.757Z,101151.28
2023-05-07T02:45:15.473Z,101153.66
2023-05-07T02:47:43.448Z,101158.50
2023-05-07T02:50:12.202Z,101154.41
2023-05-07T02:52:40.548Z,101161.91
2023-05-07T02:55:09.341Z,101161.91
2023-05-07T02:57:37.416Z,101164.91
2023-05-07T03:00:15.914Z,101176.41
2023-05-07T03:02:44.148Z,101177.09
2023-05-07T03:05:12.894Z,101176.06
2023-05-07T03:07:40.985Z,101172.53
2023-05-07T03:10:09.851Z,101170.69
2023-05-07T03:12:38.077Z,101163.88
2023-05-07T03:15:06.796Z,101162.06
2023-05-07T03:17:37.395Z,101156.53
2023-05-07T03:20:06.510Z,101161.91
2023-05-07T03:22:35.370Z,101166.31
2023-05-07T03:25:03.396Z,101160.63
2023-05-07T03:27:31.451Z,101162.19
2023-05-07T03:29:59.400Z,101169.16
2023-05-07T03:32:27.477Z,101176.91
2023-05-07T03:34:56.919Z,101167.53
2023-05-07T03:37:24.885Z,101182.44
2023-05-07T03:39:52.846Z,101173.78
2023-05-07T03:42:21.118Z,101171.53
2023-05-07T03:44:49.125Z,101177.75
2023-05-07T03:47:17.015Z,101174.22
2023-05-07T03:49:44.930Z,101176.78
2023-05-07T03:52:14.423Z,101178.19
2023-05-07T03:54:42.333Z,101176.34
2023-05-07T03:57:10.230Z,101174.63
2023-05-07T03:59:38.248Z,101174.34
2023-05-07T04:02:06.272Z,101169.63
2023-05-07T04:04:34.285Z,101175.47
2023-05-07T04:07:02.712Z,101176.16
2023-05-07T04:09:32.247Z,101178.56
2023-05-07T04:12:00.243Z,101181.25
2023-05-07T04:14:28.211Z,101183.63
2023-05-07T04:16:56.379Z,101189.75
2023-05-07T04:19:24.360Z,101192.44
2023-05-07T04:21:52.422Z,101189.28
2023-05-07T04:24:20.441Z,101200.19
2023-05-07T04:26:49.964Z,101197.50
2023-05-07T04:29:18.032Z,101198.22
2023-05-07T04:31:46.184Z,101202.06
2023-05-07T04:34:15.291Z,101203.22
2023-05-07T04:36:44.478Z,101200.66
2023-05-07T04:39:12.754Z,101199.50
2023-05-07T04:41:40.841Z,101200.91
2023-05-07T04:44:10.397Z,101205.47
2023-05-07T04:46:38.353Z,101205.00
2023-05-07T04:49:06.866Z,101209.41
2023-05-07T04:51:34.879Z,101210.25
2023-05-07T04:54:02.891Z,101210.38
2023-05-07T04:56:31.212Z,101211.66
2023-05-07T04:58:59.276Z,101209.94
2023-05-07T05:01:28.804Z,101201.00
2023-05-07T05:03:56.982Z,101197.84
2023-05-07T05:06:25.047Z,101199.53
2023-05-07T05:08:53.075Z,101199.41
2023-05-07T05:11:22.247Z,101211.03
2023-05-07T05:13:52.229Z,101202.78
2023-05-07T05:16:20.496Z,101206.88
2023-05-07T05:18:50.141Z,101211.28
2023-05-07T05:21:18.115Z,101212.75
2023-05-07T05:23:46.410Z,101223.97
2023-05-07T05:26:14.496Z,101222.69
2023-05-07T05:28:42.547Z,101227.78
2023-05-07T05:31:10.589Z,101232.03
2023-05-07T05:33:38.628Z,101226.63
2023-05-07T05:36:11.521Z,101227.19
2023-05-07T05:38:39.643Z,101230.03
2023-05-07T05:41:08.151Z,101237.69
2023-05-07T05:43:36.351Z,101237.69
2023-05-07T05:46:07.330Z,101241.91
2023-05-07T05:48:35.571Z,101243.59
2023-05-07T05:51:03.672Z,101250.00
2023-05-07T05:53:33.302Z,101237.59
2023-05-07T05:56:13.239Z,101237.59
2023-05-07T05:58:49.865Z,101240.16
2023-05-07T06:01:18.084Z,101245.78
2023-05-07T06:04:00.504Z,101226.06
2023-05-07T06:06:29.306Z,101235.53
2023-05-07T06:08:59.089Z,101232.97
2023-05-07T06:11:28.904Z,101236.06
2023-05-07T06:13:57.011Z,101232.91
2023-05-07T06:16:25.179Z,101245.91
2023-05-07T06:18:53.272Z,101245.91
2023-05-07T06:21:21.211Z,101246.53
2023-05-07T06:23:49.412Z,101242.69
2023-05-07T06:26:18.921Z,101245.22
2023-05-07T06:28:46.930Z,101245.63
2023-05-07T06:31:16.839Z,101249.09
2023-05-07T06:33:46.254Z,101250.25
2023-05-07T06:36:14.433Z,101259.25
2023-05-07T06:38:42.371Z,101257.97
2023-05-07T06:41:10.672Z,101262.22
2023-05-07T06:43:40.074Z,101264.84
2023-05-07T06:46:08.558Z,101269.59
2023-05-07T06:48:36.596Z,101268.59
2023-05-07T06:51:04.717Z,101263.94
2023-05-07T06:53:33.012Z,101267.38
2023-05-07T06:56:01.051Z,101278.09
2023-05-07T06:58:29.093Z,101273.19
2023-05-07T07:00:59.725Z,101275.22
2023-05-07T07:03:27.702Z,101279.13
2023-05-07T07:05:55.919Z,101293.19
2023-05-07T07:08:24.450Z,101288.09
2023-05-07T07:10:52.580Z,101300.53
2023-05-07T07:13:20.756Z,101297.84
2023-05-07T07:15:48.836Z,101295.59
2023-05-07T07:18:18.359Z,101294.06
2023-05-07T07:20:46.777Z,101298.22
2023-05-07T07:23:14.949Z,101303.13
2023-05-07T07:25:43.180Z,101303.50
2023-05-07T07:28:12.497Z,101302.88
2023-05-07T07:30:40.860Z,101300.84
2023-05-07T07:33:09.227Z,101302.25
2023-05-07T07:35:38.753Z,101311.56
2023-05-07T07:38:06.827Z,101307.84
2023-05-07T07:40:37.256Z,101321.25
2023-05-07T07:43:05.974Z,101324.34
2023-05-07T07:45:34.034Z,101316.69
2023-05-07T07:48:02.152Z,101320.53
2023-05-07T07:50:43.413Z,101329.81
2023-05-07T07:53:15.031Z,101333.19
2023-05-07T07:55:43.366Z,101337.75
2023-05-07T07:58:11.434Z,101342.72
2023-05-07T08:00:39.402Z,101339.94
2023-05-07T08:03:08.517Z,101348.13
2023-05-07T08:05:37.352Z,101357.84
2023-05-07T08:08:05.983Z,101365.59
2023-05-07T08:10:39.443Z,101369.06
2023-05-07T08:13:07.627Z,101372.50
2023-05-07T08:15:35.923Z,101385.09
2023-05-07T08:18:04.514Z,101384.19
2023-05-07T08:20:32.982Z,101384.09
2023-05-07T08:23:01.099Z,101386.41
2023-05-07T08:25:29.076Z,101390.69
2023-05-07T08:27:58.731Z,101400.13
2023-05-07T08:30:27.215Z,101389.69
2023-05-07T08:32:55.491Z,101391.13
2023-05-07T08:35:24.003Z,101381.63
2023-05-07T08:37:51.985Z,101389.91
2023-05-07T08:40:20.231Z,101397.22
2023-05-07T08:42:51.319Z,101377.44
2023-05-07T08:45:25.060Z,101372.59
2023-05-07T08:47:57.766Z,101376.56
2023-05-07T08:50:26.349Z,101383.13
2023-05-07T08:52:54.661Z,101385.31
2023-05-07T08:55:22.960Z,101391.47
2023-05-07T08:57:51.189Z,101395.72
2023-05-07T09:00:21.062Z,101383.88
2023-05-07T09:02:49.363Z,101395.66
2023-05-07T09:05:17.421Z,101397.09
2023-05-07T09:07:45.588Z,101402.16
2023-05-07T09:10:14.209Z,101401.94
2023-05-07T09:12:42.419Z,101413.50
2023-05-07T09:15:13.120Z,101421.53
2023-05-07T09:17:43.597Z,101403.59
2023-05-07T09:20:12.329Z,101402.41
2023-05-07T09:22:40.643Z,101400.72
2023-05-07T09:25:10.492Z,101393.25
2023-05-07T09:27:39.437Z,101385.25
2023-05-07T09:30:10.190Z,101387.66
2023-05-07T09:32:40.207Z,101393.16
2023-05-07T09:35:17.576Z,101396.38
2023-05-07T09:37:46.109Z,101406.34
2023-05-07T09:40:23.108Z,101419.56
2023-05-07T09:42:51.919Z,101424.50
2023-05-07T09:45:24.705Z,101430.13
2023-05-07T09:50:29.867Z,101433.97
2023-05-07T09:52:59.374Z,101437.69
2023-05-07T09:55:28.091Z,101434.47
2023-05-07T09:57:56.759Z,101432.25
2023-05-07T10:00:25.070Z,101433.25
2023-05-07T10:02:54.722Z,101442.59
2023-05-07T10:05:26.249Z,101438.31
2023-05-07T10:07:55.205Z,101439.13
2023-05-07T10:10:24.209Z,101446.53
2023-05-07T10:12:53.053Z,101437.88
2023-05-07T10:15:21.214Z,101440.91
2023-05-07T10:17:50.590Z,101445.09
2023-05-07T10:20:18.623Z,101446.75
2023-05-07T10:22:49.757Z,101455.84
2023-05-07T10:25:25.135Z,101446.94
2023-05-07T10:27:56.539Z,101460.00
2023-05-07T10:30:38.077Z,101450.41
2023-05-07T10:33:10.323Z,101449.59
2023-05-07T10:35:41.719Z,101452.88
2023-05-07T10:38:11.766Z,101457.28
2023-05-07T10:40:40.096Z,101459.69
2023-05-07T10:43:10.879Z,101469.00
2023-05-07T10:45:39.119Z,101464.94
2023-05-07T10:48:29.770Z,101465.13
2023-05-07T10:51:23.416Z,101468.38
2023-05-07T10:54:23.054Z,101474.34
2023-05-07T10:56:52.286Z,101476.25
2023-05-07T10:59:35.081Z,101475.03
2023-05-07T11:02:05.619Z,101472.69
2023-05-07T11:04:36.349Z,101477.56
2023-05-07T11:07:37.965Z,101476.53
2023-05-07T11:10:09.161Z,101483.13
2023-05-07T11:12:54.517Z,101487.53
2023-05-07T11:15:45.293Z,101486.16
2023-05-07T11:18:14.756Z,101496.38
2023-05-07T11:20:57.278Z,101491.59
2023-05-07T11:24:02.394Z,101486.50
2023-05-07T11:26:43.283Z,101488.56
2023-05-07T11:29:14.031Z,101482.31
2023-05-07T11:31:42.378Z,101480.09
2023-05-07T11:34:11.022Z,101477.94
2023-05-07T11:36:45.372Z,101481.00
2023-05-07T11:39:27.313Z,101480.47
2023-05-07T11:41:58.421Z,101472.97
2023-05-07T11:44:26.468Z,101472.97
2023-05-07T11:46:54.932Z,101476.84
2023-05-07T11:49:23.375Z,101493.94
2023-05-07T11:51:51.612Z,101484.94
2023-05-07T11:54:19.741Z,101491.53
2023-05-07T11:56:49.145Z,101489.78
2023-05-07T11:59:21.580Z,101493.16
2023-05-07T12:01:50.385Z,101497.19
2023-05-07T12:04:23.127Z,101493.31
2023-05-07T12:06:52.134Z,101497.72
2023-05-07T12:09:20.483Z,101495.19
2023-05-07T12:11:48.978Z,101501.63
2023-05-07T12:14:18.168Z,101503.28
2023-05-07T12:16:48.715Z,101501.09
2023-05-07T12:19:17.263Z,101506.78
2023-05-07T12:21:45.806Z,101507.50
2023-05-07T12:24:14.115Z,101514.63
2023-05-07T12:26:43.228Z,101528.38
2023-05-07T12:29:11.725Z,101521.75
2023-05-07T12:31:43.713Z,101522.06
2023-05-07T12:34:15.095Z,101522.56
2023-05-07T12:36:43.930Z,101520.38
2023-05-07T12:39:12.526Z,101514.28
2023-05-07T12:41:55.705Z,101525.66
2023-05-07T12:44:25.753Z,101515.03
2023-05-07T12:46:54.096Z,101517.38
2023-05-07T12:49:26.082Z,101514.38
2023-05-07T12:51:55.503Z,101524.19
2023-05-07T12:54:33.635Z,101521.84
2023-05-07T12:57:05.927Z,101525.63
2023-05-07T12:59:35.395Z,101521.91
2023-05-07T13:02:03.669Z,101532.91
2023-05-07T13:04:33.771Z,101537.84
2023-05-07T13:07:02.226Z,101538.53
2023-05-07T13:09:30.390Z,101535.13
2023-05-07T13:12:01.070Z,101522.22
2023-05-07T13:14:29.378Z,101525.38
2023-05-07T13:16:57.879Z,101526.41
2023-05-07T13:19:26.534Z,101527.84
2023-05-07T13:21:56.210Z,101534.69
2023-05-07T13:24:24.207Z,101535.38
2023-05-07T13:26:52.290Z,101536.72
2023-05-07T13:29:20.411Z,101537.50
2023-05-07T13:31:49.795Z,101530.13
2023-05-07T13:34:18.379Z,101544.31
2023-05-07T13:36:46.471Z,101541.09
2023-05-07T13:39:16.998Z,101534.72
2023-05-07T13:41:45.086Z,101538.75
2023-05-07T13:44:13.221Z,101529.59
2023-05-07T13:46:41.231Z,101527.41
2023-05-07T13:49:09.261Z,101534.88
2023-05-07T13:51:37.350Z,101524.00
2023-05-07T13:54:05.754Z,101525.56
2023-05-07T13:56:35.236Z,101527.97
2023-05-07T13:59:03.324Z,101528.50
2023-05-07T14:01:31.471Z,101541.09
2023-05-07T14:04:00.713Z,101533.28
2023-05-07T14:06:29.048Z,101526.13
2023-05-07T14:08:59.310Z,101530.59
2023-05-07T14:11:27.555Z,101528.47
2023-05-07T14:13:57.973Z,101546.72
2023-05-07T14:16:26.263Z,101534.31
2023-05-07T14:18:57.819Z,101537.19
2023-05-07T14:21:26.871Z,101536.00
2023-05-07T14:23:55.098Z,101527.16
2023-05-07T14:26:24.371Z,101523.28
2023-05-07T14:28:52.420Z,101539.25
2023-05-07T14:31:22.073Z,101533.03
2023-05-07T14:33:50.925Z,101531.94
2023-05-07T14:36:21.088Z,101531.94
2023-05-07T14:38:49.817Z,101538.19
2023-05-07T14:41:18.339Z,101528.69
2023-05-07T14:43:51.085Z,101516.59
2023-05-07T14:46:19.871Z,101526.22
2023-05-07T14:48:49.471Z,101528.78
2023-05-07T14:51:17.620Z,101533.13
2023-05-07T14:53:46.225Z,101526.22
2023-05-07T14:56:14.435Z,101529.91
2023-05-07T14:58:42.770Z,101536.78
2023-05-07T15:01:10.922Z,101537.78
2023-05-07T15:03:39.176Z,101532.75
2023-05-07T15:06:09.526Z,101536.19
2023-05-07T15:08:37.827Z,101540.75
2023-05-07T15:11:05.935Z,101525.88
2023-05-07T15:13:34.355Z,101528.53
2023-05-07T15:16:02.579Z,101533.00
2023-05-07T15:18:30.704Z,101540.50
2023-05-07T15:20:59.848Z,101535.38
2023-05-07T15:23:29.604Z,101527.22
2023-05-07T15:25:58.504Z,101539.72
2023-05-07T15:28:26.803Z,101534.81
2023-05-07T15:30:56.289Z,101528.66
2023-05-07T15:33:24.980Z,101521.41
2023-05-07T15:35:53.043Z,101528.53
2023-05-07T15:38:21.253Z,101520.72
2023-05-07T15:40:51.161Z,101510.84
2023-05-07T15:43:19.705Z,101513.75
2023-05-07T15:45:47.881Z,101512.75
2023-05-07T15:48:16.069Z,101519.44
2023-05-07T15:50:44.530Z,101517.72
2023-05-07T15:53:14.066Z,101508.75
2023-05-07T15:55:44.579Z,101515.63
2023-05-07T15:58:14.358Z,101521.59
2023-05-07T16:00:42.964Z,101520.19
2023-05-07T16:03:11.209Z,101514.38
2023-05-07T16:05:39.938Z,101517.69
2023-05-07T16:08:08.732Z,101527.47
2023-05-07T16:10:36.835Z,101529.72
2023-05-07T16:13:05.024Z,101531.44
2023-05-07T16:15:35.196Z,101533.53
2023-05-07T16:18:03.366Z,101537.31
2023-05-07T16:20:31.702Z,101536.09
2023-05-07T16:22:59.952Z,101544.59
2023-05-07T16:25:28.059Z,101541.41
2023-05-07T16:27:57.025Z,101534.47
2023-05-07T16:30:25.734Z,101534.63
2023-05-07T16:32:55.579Z,101527.44
2023-05-07T16:35:23.766Z,101537.44
2023-05-07T16:37:52.114Z,101534.16
2023-05-07T16:40:20.432Z,101527.88
2023-05-07T16:42:48.667Z,101524.47
2023-05-07T16:45:17.250Z,101530.06
2023-05-07T16:47:45.651Z,101524.06
2023-05-07T16:52:43.842Z,101525.44
2023-05-07T16:55:12.962Z,101521.66
2023-05-07T16:57:41.300Z,101525.19
2023-05-07T17:00:11.821Z,101520.59
2023-05-07T17:02:40.149Z,101532.28
2023-05-07T17:05:09.275Z,101523.63
2023-05-07T17:07:39.629Z,101531.59
2023-05-07T17:10:09.088Z,101528.38
2023-05-07T17:12:37.739Z,101533.91
2023-05-07T17:15:07.139Z,101535.94
2023-05-07T17:17:35.349Z,101528.25
2023-05-07T17:20:03.800Z,101550.50
2023-05-07T17:22:31.870Z,101539.91
2023-05-07T17:25:03.683Z,101535.81
2023-05-07T17:27:32.492Z,101541.34
2023-05-07T17:30:00.550Z,101546.97
2023-05-07T17:32:29.557Z,101541.03
2023-05-07T17:34:57.699Z,101533.78
2023-05-07T17:37:25.796Z,101537.28
2023-05-07T17:39:54.782Z,101539.50
2023-05-07T17:42:24.660Z,101531.59
2023-05-07T17:44:53.039Z,101533.56
2023-05-07T17:47:21.162Z,101537.00
2023-05-07T17:49:49.428Z,101536.88
2023-05-07T17:52:17.598Z,101524.13
2023-05-07T17:54:45.779Z,101536.47
2023-05-07T17:57:14.294Z,101535.00
2023-05-07T17:59:44.208Z,101532.31
2023-05-07T18:02:12.422Z,101532.84
2023-05-07T18:04:40.532Z,101529.66
2023-05-07T18:07:08.897Z,101524.94
2023-05-07T18:12:36.651Z,101533.25
2023-05-07T18:15:08.098Z,101529.50
2023-05-07T18:17:36.852Z,101525.72
2023-05-07T18:20:06.562Z,101535.06
2023-05-07T18:28:30.457Z,101545.44
2023-05-07T18:31:00.531Z,101538.50
2023-05-07T18:33:29.080Z,101545.47
2023-05-07T18:36:15.261Z,101544.31
2023-05-07T18:38:45.246Z,101547.56
2023-05-07T18:41:15.090Z,101545.47
2023-05-07T18:43:45.398Z,101552.88
2023-05-07T18:46:17.187Z,101557.41
2023-05-07T18:48:47.601Z,101553.22
2023-05-07T18:51:17.120Z,101552.13
2023-05-07T18:53:48.033Z,101547.31
2023-05-07T18:56:17.703Z,101546.06
2023-05-07T18:58:46.647Z,101540.53
2023-05-07T19:01:17.133Z,101535.47
2023-05-07T19:03:46.032Z,101529.34
2023-05-07T19:06:15.379Z,101535.81
2023-05-07T19:08:44.280Z,101533.22
2023-05-07T19:11:13.330Z,101537.63
2023-05-07T19:13:41.359Z,101543.53
2023-05-07T19:16:12.589Z,101548.06
2023-05-07T19:18:43.789Z,101539.41
2023-05-07T19:23:43.753Z,101556.22
2023-05-07T19:26:13.043Z,101552.41
2023-05-07T19:28:45.500Z,101556.38
2023-05-07T19:31:22.074Z,101562.09
2023-05-07T19:33:52.245Z,101566.75
2023-05-07T19:36:20.873Z,101571.09
2023-05-07T19:38:50.454Z,101578.84
2023-05-07T19:41:18.720Z,101571.53
2023-05-07T19:43:46.825Z,101577.25
2023-05-07T19:46:16.722Z,101577.03
2023-05-07T19:48:45.812Z,101585.34
2023-05-07T19:51:15.404Z,101585.97
2023-05-07T19:53:45.063Z,101582.88
2023-05-07T19:56:15.088Z,101577.94
2023-05-07T19:58:46.244Z,101581.31
2023-05-07T20:01:15.405Z,101577.38
2023-05-07T20:03:43.654Z,101584.09
2023-05-07T20:06:12.540Z,101580.16
2023-05-07T20:08:43.438Z,101588.50
2023-05-07T20:11:13.584Z,101589.13
2023-05-07T20:13:41.839Z,101599.09
2023-05-07T20:16:11.212Z,101602.41
2023-05-07T20:18:39.491Z,101599.00
2023-05-07T20:21:08.089Z,101598.00
2023-05-07T20:23:36.417Z,101596.31
2023-05-07T20:26:06.024Z,101591.50
2023-05-07T20:28:34.972Z,101592.97
2023-05-07T20:31:03.742Z,101593.09
2023-05-07T20:33:32.140Z,101596.13
2023-05-07T20:36:00.425Z,101593.03
2023-05-07T20:38:30.641Z,101602.38
2023-05-07T20:40:59.051Z,101603.13
2023-05-07T20:43:29.345Z,101602.38
2023-05-07T20:46:01.052Z,101596.13
2023-05-07T20:48:30.947Z,101594.00
2023-05-07T20:51:00.147Z,101592.59
2023-05-07T20:53:29.484Z,101585.31
2023-05-07T20:55:58.335Z,101590.84
2023-05-07T20:58:29.355Z,101592.16
2023-05-07T21:00:57.912Z,101596.19
2023-05-07T21:03:26.120Z,101589.38
2023-05-07T21:05:56.152Z,101594.06
2023-05-07T21:08:25.148Z,101592.69
2023-05-07T21:10:58.495Z,101592.97
2023-05-07T21:13:28.661Z,101595.25
2023-05-07T21:15:57.280Z,101593.56
2023-05-07T21:18:26.943Z,101603.97
2023-05-07T21:20:55.556Z,101608.53
2023-05-07T21:23:23.926Z,101609.25
2023-05-07T21:26:25.187Z,101605.97
2023-05-07T21:29:01.659Z,101600.47
2023-05-07T21:31:30.345Z,101614.25
2023-05-07T21:33:58.709Z,101602.47
2023-05-07T21:36:27.503Z,101596.09
2023-05-07T21:38:55.662Z,101592.97
2023-05-07T21:41:24.161Z,101593.41
2023-05-07T21:43:52.709Z,101597.09
2023-05-07T21:46:22.558Z,101589.56
2023-05-07T21:48:50.612Z,101589.16
2023-05-07T21:51:18.948Z,101598.09
2023-05-07T21:53:48.086Z,101593.97
2023-05-07T21:56:16.329Z,101600.63
2023-05-07T21:58:44.591Z,101596.66
2023-05-07T22:01:13.184Z,101585.47
2023-05-07T22:03:43.011Z,101594.13
2023-05-07T22:06:11.161Z,101583.59
2023-05-07T22:08:39.459Z,101572.38
2023-05-07T22:11:07.819Z,101574.50
2023-05-07T22:13:36.023Z,101572.13
2023-05-07T22:16:04.243Z,101568.00
2023-05-07T22:18:32.462Z,101563.75
2023-05-07T22:21:02.253Z,101563.88
2023-05-07T22:23:30.552Z,101566.56
2023-05-07T22:25:58.623Z,101564.28
2023-05-07T22:28:26.997Z,101565.88
2023-05-07T22:30:57.576Z,101566.88
2023-05-07T22:33:28.513Z,101567.72
2023-05-07T22:35:57.276Z,101559.75
2023-05-07T22:38:27.488Z,101558.78
2023-05-07T22:40:56.436Z,101557.03
2023-05-07T22:43:27.339Z,101559.19
2023-05-07T22:46:01.605Z,101564.00
2023-05-07T22:48:30.551Z,101556.59
2023-05-07T22:50:59.409Z,101556.50
2023-05-07T22:53:31.522Z,101558.03
2023-05-07T22:56:00.060Z,101560.59
2023-05-07T22:58:28.759Z,101558.88
2023-05-07T23:01:01.702Z,101558.88
2023-05-07T23:06:24.960Z,101554.66
2023-05-07T23:08:56.007Z,101553.66
2023-05-07T23:11:24.786Z,101553.94
2023-05-07T23:13:53.640Z,101557.47
2023-05-07T23:16:22.219Z,101557.34
2023-05-07T23:18:50.672Z,101559.19
2023-05-07T23:21:19.236Z,101551.81
2023-05-07T23:23:49.585Z,101560.59
2023-05-07T23:26:20.969Z,101550.81
2023-05-07T23:28:49.334Z,101550.69
2023-05-07T23:31:21.045Z,101554.09
2023-05-07T23:33:53.814Z,101542.72
2023-05-07T23:36:22.279Z,101537.31
2023-05-07T23:38:51.206Z,101530.22
2023-05-07T23:41:21.817Z,101538.06
2023-05-07T23:43:50.647Z,101534.34
2023-05-07T23:46:25.730Z,101531.50
2023-05-07T23:49:03.426Z,101537.47
2023-05-07T23:51:32.486Z,101530.22
2023-05-07T23:54:00.843Z,101521.97
2023-05-07T23:56:30.867Z,101515.16
2023-05-07T23:59:11.578Z,101512.34
